createdAt,value
2022-12-16T00:02:22.156Z,3.80
2022-12-16T00:07:24.532Z,3.90
2022-12-16T00:12:26.985Z,3.80
2022-12-16T00:17:30.478Z,3.70
2022-12-16T00:22:32.629Z,3.60
2022-12-16T00:27:34.695Z,3.50
2022-12-16T00:32:38.352Z,3.40
2022-12-16T00:37:40.418Z,3.30
2022-12-16T00:42:42.501Z,3.20
2022-12-16T00:47:46.160Z,3.10
2022-12-16T00:52:48.742Z,3.10
2022-12-16T00:57:50.831Z,3.00
2022-12-16T01:02:55.478Z,3.00
2022-12-16T01:07:57.795Z,3.00
2022-12-16T01:12:59.918Z,3.00
2022-12-16T01:18:03.453Z,3.00
2022-12-16T01:23:05.702Z,3.00
2022-12-16T01:28:07.917Z,3.00
2022-12-16T01:33:12.341Z,3.00
2022-12-16T01:38:14.526Z,3.00
2022-12-16T01:43:18.983Z,3.00
2022-12-16T01:48:40.514Z,3.00
2022-12-16T01:53:45.174Z,3.00
2022-12-16T01:58:47.512Z,2.90
2022-12-16T02:03:54.798Z,2.90
2022-12-16T02:09:00.692Z,2.90
2022-12-16T02:14:20.727Z,2.90
2022-12-16T02:20:00.163Z,2.80
2022-12-16T02:25:31.452Z,2.90
2022-12-16T02:30:56.207Z,2.80
2022-12-16T02:36:08.820Z,2.80
2022-12-16T02:41:17.665Z,2.90
2022-12-16T02:46:24.027Z,2.80
2022-12-16T02:51:27.236Z,2.80
2022-12-16T02:56:47.113Z,2.80
2022-12-16T03:01:56.975Z,2.80
2022-12-16T03:07:01.643Z,2.80
2022-12-16T03:12:08.197Z,2.80
2022-12-16T03:17:14.435Z,2.80
2022-12-16T03:22:21.633Z,2.80
2022-12-16T03:27:31.836Z,2.80
2022-12-16T03:32:38.583Z,2.70
2022-12-16T03:37:42.935Z,2.80
2022-12-16T03:42:45.264Z,2.70
2022-12-16T03:47:51.560Z,2.70
2022-12-16T03:52:53.786Z,2.70
2022-12-16T03:57:56.416Z,2.70
2022-12-16T04:03:00.434Z,2.70
2022-12-16T04:08:02.852Z,2.70
2022-12-16T04:13:05.005Z,2.70
2022-12-16T04:18:14.586Z,2.70
2022-12-16T04:23:17.335Z,2.70
2022-12-16T04:28:19.446Z,2.70
2022-12-16T04:33:23.411Z,2.70
2022-12-16T04:38:25.541Z,2.70
2022-12-16T04:43:27.624Z,2.80
2022-12-16T04:48:31.374Z,3.00
2022-12-16T04:53:33.798Z,3.10
2022-12-16T04:58:36.308Z,3.20
2022-12-16T05:03:39.978Z,3.20
2022-12-16T05:08:42.100Z,3.20
2022-12-16T05:13:44.223Z,3.20
2022-12-16T05:18:47.764Z,3.20
2022-12-16T05:23:49.904Z,3.30
2022-12-16T05:28:52.012Z,3.40
2022-12-16T05:33:55.635Z,3.40
2022-12-16T05:38:57.824Z,3.60
2022-12-16T05:44:02.886Z,3.60
2022-12-16T05:49:06.408Z,3.70
2022-12-16T05:54:09.710Z,3.80
2022-12-16T05:59:11.792Z,3.80
2022-12-16T06:04:17.709Z,3.90
2022-12-16T06:09:20.362Z,3.90
2022-12-16T06:14:22.484Z,3.90
2022-12-16T06:19:26.032Z,4.00
2022-12-16T06:24:28.130Z,4.00
2022-12-16T06:29:30.338Z,4.00
2022-12-16T06:34:34.039Z,3.90
2022-12-16T06:39:36.228Z,3.80
2022-12-16T06:44:38.379Z,3.60
2022-12-16T06:49:41.956Z,3.50
2022-12-16T06:54:44.108Z,3.50
2022-12-16T06:59:46.258Z,3.40
2022-12-16T07:04:49.767Z,3.50
2022-12-16T07:09:52.222Z,3.50
2022-12-16T07:14:54.600Z,3.50
2022-12-16T07:19:58.377Z,3.50
2022-12-16T07:25:00.585Z,3.50
2022-12-16T07:30:02.798Z,3.50
2022-12-16T07:35:07.014Z,3.60
2022-12-16T07:40:10.238Z,3.60
2022-12-16T07:45:12.298Z,3.60
2022-12-16T07:50:15.970Z,3.60
2022-12-16T07:55:18.156Z,3.50
2022-12-16T08:00:20.504Z,3.40
2022-12-16T08:05:24.169Z,3.30
2022-12-16T08:10:26.497Z,3.30
2022-12-16T08:15:28.684Z,3.20
2022-12-16T08:20:32.277Z,3.20
2022-12-16T08:25:34.429Z,3.30
2022-12-16T08:30:36.727Z,3.30
2022-12-16T08:35:40.422Z,3.30
2022-12-16T08:40:44.371Z,3.30
2022-12-16T08:45:46.640Z,3.20
2022-12-16T08:50:50.329Z,3.30
2022-12-16T08:55:55.709Z,3.40
2022-12-16T09:01:03.166Z,3.40
2022-12-16T09:06:10.120Z,3.40
2022-12-16T09:11:12.341Z,3.40
2022-12-16T09:16:19.231Z,3.30
2022-12-16T09:21:23.206Z,3.30
2022-12-16T09:26:25.342Z,3.20
2022-12-16T09:31:27.617Z,3.10
2022-12-16T09:36:31.244Z,3.00
2022-12-16T09:41:44.764Z,3.00
2022-12-16T09:46:53.125Z,3.10
2022-12-16T09:51:58.007Z,3.20
2022-12-16T09:57:02.492Z,3.40
2022-12-16T10:02:11.866Z,3.50
2022-12-16T10:07:18.411Z,3.70
2022-12-16T10:12:32.690Z,3.90
2022-12-16T10:17:36.855Z,3.90
2022-12-16T10:22:55.730Z,3.90
2022-12-16T10:28:07.375Z,3.90
2022-12-16T10:33:19.704Z,3.90
2022-12-16T10:44:23.578Z,3.90
2022-12-16T10:49:25.978Z,4.00
2022-12-16T10:54:35.447Z,4.00
2022-12-16T10:59:39.872Z,4.00
2022-12-16T11:04:46.000Z,3.90
2022-12-16T11:09:49.945Z,3.90
2022-12-16T11:15:27.176Z,4.00
2022-12-16T11:20:18.845Z,4.10
2022-12-16T11:25:22.556Z,4.20
2022-12-16T11:30:24.769Z,4.30
2022-12-16T11:35:30.124Z,4.30
2022-12-16T11:40:34.067Z,4.40
2022-12-16T11:45:36.899Z,4.60
2022-12-16T11:50:42.753Z,4.60
2022-12-16T11:56:08.918Z,4.70
2022-12-16T12:01:18.647Z,4.70
2022-12-16T12:06:29.664Z,4.70
2022-12-16T12:11:36.895Z,4.60
2022-12-16T12:16:58.395Z,4.50
2022-12-16T12:22:04.743Z,4.40
2022-12-16T12:27:17.121Z,4.30
2022-12-16T12:32:26.230Z,4.20
2022-12-16T12:37:33.999Z,4.20
2022-12-16T12:42:49.218Z,4.10
2022-12-16T12:48:04.686Z,4.10
2022-12-16T12:53:19.553Z,4.10
2022-12-16T12:58:24.428Z,4.00
2022-12-16T13:03:35.318Z,4.10
2022-12-16T13:08:55.236Z,4.20
2022-12-16T13:14:00.079Z,4.20
2022-12-16T13:19:41.565Z,4.30
2022-12-16T13:24:47.262Z,4.30
2022-12-16T13:30:04.925Z,4.30
2022-12-16T13:35:18.353Z,4.30
2022-12-16T13:40:22.298Z,4.30
2022-12-16T13:45:34.732Z,4.30
2022-12-16T13:50:38.899Z,4.40
2022-12-16T13:55:48.083Z,4.40
2022-12-16T14:01:05.563Z,4.50
2022-12-16T14:06:16.036Z,4.70
2022-12-16T14:11:22.584Z,4.80
2022-12-16T14:16:37.370Z,4.90
2022-12-16T14:21:47.331Z,4.90
2022-12-16T14:26:50.759Z,4.90
2022-12-16T14:31:54.457Z,4.90
2022-12-16T14:36:56.745Z,4.80
2022-12-16T14:41:59.265Z,4.80
2022-12-16T14:47:03.508Z,4.80
2022-12-16T14:52:16.841Z,4.80
2022-12-16T14:57:21.318Z,4.60
2022-12-16T15:02:30.995Z,4.60
2022-12-16T15:07:37.622Z,4.40
2022-12-16T15:12:43.774Z,4.30
2022-12-16T15:17:51.983Z,4.30
2022-12-16T15:22:54.225Z,4.30
2022-12-16T15:27:57.338Z,4.40
2022-12-16T15:33:07.034Z,4.40
2022-12-16T15:38:12.696Z,4.30
2022-12-16T15:43:25.069Z,4.20
2022-12-16T15:48:30.820Z,4.10
2022-12-16T15:53:37.470Z,3.90
2022-12-16T15:58:39.631Z,3.90
2022-12-16T16:03:50.012Z,3.70
2022-12-16T16:08:52.461Z,3.60
2022-12-16T16:13:56.831Z,3.40
2022-12-16T16:19:04.548Z,3.30
2022-12-16T16:24:07.136Z,3.20
2022-12-16T16:29:10.871Z,3.20
2022-12-16T16:34:14.325Z,3.20
2022-12-16T16:39:16.459Z,3.30
2022-12-16T16:44:20.011Z,3.30
2022-12-16T16:49:28.755Z,3.40
2022-12-16T16:54:30.843Z,3.50
2022-12-16T16:59:32.927Z,3.60
2022-12-16T17:04:36.471Z,3.60
2022-12-16T17:09:38.598Z,3.60
2022-12-16T17:14:40.731Z,3.60
2022-12-16T17:19:44.345Z,3.50
2022-12-16T17:24:49.297Z,3.50
2022-12-16T17:29:53.562Z,3.40
2022-12-16T17:34:58.178Z,3.40
2022-12-16T17:40:02.227Z,3.40
2022-12-16T17:45:05.175Z,3.30
2022-12-16T17:50:09.365Z,3.10
2022-12-16T17:55:11.525Z,3.10
2022-12-16T18:00:14.698Z,3.00
2022-12-16T18:05:18.185Z,2.90
2022-12-16T18:10:20.673Z,2.80
2022-12-16T18:15:22.927Z,2.70
2022-12-16T18:20:26.474Z,2.70
2022-12-16T18:25:28.623Z,2.60
2022-12-16T18:30:30.742Z,2.50
2022-12-16T18:35:34.319Z,2.50
2022-12-16T18:40:36.490Z,2.40
2022-12-16T18:45:38.816Z,2.40
2022-12-16T18:50:42.434Z,2.40
2022-12-16T18:55:44.602Z,2.40
2022-12-16T19:00:46.802Z,2.50
2022-12-16T19:05:55.145Z,2.50
2022-12-16T19:10:57.940Z,2.60
2022-12-16T19:16:03.701Z,2.60
2022-12-16T19:21:07.421Z,2.70
2022-12-16T19:26:09.925Z,2.80
2022-12-16T19:31:12.076Z,2.80
2022-12-16T19:36:18.470Z,2.80
2022-12-16T19:41:21.641Z,2.90
2022-12-16T19:46:23.883Z,2.90
2022-12-16T19:51:29.048Z,2.90
2022-12-16T19:56:32.982Z,3.00
2022-12-16T20:01:36.595Z,3.00
2022-12-16T20:06:41.224Z,3.10
2022-12-16T20:11:45.030Z,3.10
2022-12-16T20:16:47.165Z,3.20
2022-12-16T20:21:54.752Z,3.20
2022-12-16T20:26:59.421Z,3.30
2022-12-16T20:32:04.096Z,3.30
2022-12-16T20:37:10.367Z,3.30
2022-12-16T20:42:13.339Z,3.30
2022-12-16T20:47:15.803Z,3.30
2022-12-16T20:52:19.479Z,3.20
2022-12-16T20:57:22.909Z,3.20
2022-12-16T21:02:28.026Z,3.10
2022-12-16T21:07:50.065Z,3.10
2022-12-16T21:12:52.715Z,3.10
2022-12-16T21:18:00.724Z,3.10
2022-12-16T21:23:06.650Z,3.00
2022-12-16T21:28:10.525Z,3.00
2022-12-16T21:33:17.075Z,3.00
2022-12-16T21:38:21.223Z,3.00
2022-12-16T21:43:24.602Z,3.00
2022-12-16T21:48:26.787Z,3.00
2022-12-16T21:53:30.358Z,3.00
2022-12-16T21:58:32.505Z,3.00
2022-12-16T22:03:36.065Z,3.00
2022-12-16T22:08:42.022Z,3.10
2022-12-16T22:13:44.192Z,3.10
2022-12-16T22:18:46.321Z,3.10
2022-12-16T22:23:49.968Z,3.00
2022-12-16T22:28:52.674Z,3.00
2022-12-16T22:34:00.116Z,2.90
2022-12-16T22:39:03.748Z,2.90
2022-12-16T22:44:05.807Z,2.80
2022-12-16T22:49:07.897Z,2.90
2022-12-16T22:54:11.380Z,2.80
2022-12-16T22:59:13.438Z,2.90
2022-12-16T23:04:15.547Z,2.90
2022-12-16T23:09:19.141Z,2.80
2022-12-16T23:14:21.247Z,2.80
2022-12-16T23:19:23.360Z,2.80
2022-12-16T23:24:26.994Z,2.70
2022-12-16T23:29:29.076Z,2.70
2022-12-16T23:34:31.188Z,2.70
2022-12-16T23:39:34.772Z,2.60
2022-12-16T23:44:36.807Z,2.70
2022-12-16T23:49:39.095Z,2.70
2022-12-16T23:54:42.690Z,2.60
2022-12-16T23:59:44.890Z,2.60
